Strona główna
METAR-TAF:

METAR-TAF

Lotnisko :

Cranwell, Anglia

Szerokość geograficzna: 53-02N, Długość geograficzna: 000-30W, wysokość: 67 m

Aktualna obserwacja pogody

Raport powstał 34 minut temu, godzina 15:50 UTC
Wiatr 5 kt od zachodnio-północny zachód
Temperatura 7°C
Wilgotność 93%
Ciśnienie 1013 hPa
Widzialność 10 km lub więcej
Mało chmury na wysokości 1000 ft
Przerywane chmury na wysokości 4500 ft

METAR: EGYD 251550Z 30005KT 9999 FEW010 BKN045 07/06 Q1013 NOSIG RMK BLU BLU

czas: 16:24 (16:24 UTC)

Prognoza

Raport powstał 2 godziny i 49 minut temu, godzina 13:35 UTC
Prognoza ważna od 25 godzina 15 UTC do 25 godzina 19 UTC
Wiatr 10 kt od północny zachód
Widzialność 10 km lub więcej
Mało chmury na wysokości 1500 ft
Przerywane chmury na wysokości 4000 ft
Prawdopodobieństwo 40% :
Przejściowo
od 25 godzina 15 UTC do 25 godzina 16 UTC
Przerywane chmury na wysokości 800 ft

TAF: EGYD 251335Z 2515/2519 31010KT 9999 FEW015 BKN040 PROB40 TEMPO 2515/2516 BKN008

Obserwacja i prognoza pogody dla ponad 4000 lotnisk (raport METAR i TAF).

Dostępne stacje oznaczono żółtymi i czerwonymi punktami na mapie.

Najedź kursorem aby zobaczyć nazwę stacji.

Kliknij aby zobaczyć obserwacje i prognozy pogody.

Aby zmienić mapę: kliknij na zielony przycisk z czarnym krzyżykiem, aby powiększyć; na zielony przycisk z myślnikiem, aby pomniejszyć; na zielone strzałki, aby przejść do map sąsiednich.


METAR-TAF: